Time;durP1;ratioP1;P1;durP2;ratioP2;P2;SDS_P1;SDS_P2;PMS_P1;PMS_P2;Temp;Humidity;BMP_temperature;BMP_pressure;BME280_temperature;BME280_humidity;BME280_pressure;Samples;Min_cycle;Max_cycle;Signal;HPM_P1;HPM_P2
2023/11/26 13:39:10;;;;;;;6.03;1.90;;;;;;;;;;5130157;27;20131;-83
2023/11/26 13:41:40;;;;;;;3.83;1.80;;;;;;;;;;5134256;27;20539;-82
2023/11/26 13:44:07;;;;;;;6.30;2.20;;;;;;;;;;5107654;27;20058;-81
2023/11/26 13:46:34;;;;;;;4.60;2.13;;;;;;;;;;5122811;27;20055;-81
2023/11/26 13:49:01;;;;;;;4.95;1.90;;;;;;;;;;5116432;27;20057;-81
2023/11/26 13:51:28;;;;;;;2.20;1.75;;;;;;;;;;5128569;27;20130;-81
2023/11/26 13:53:55;;;;;;;4.53;2.28;;;;;;;;;;5145349;27;20043;-82
2023/11/26 13:56:22;;;;;;;7.63;2.40;;;;;;;;;;5127016;27;20061;-81
2023/11/26 13:58:49;;;;;;;6.18;2.00;;;;;;;;;;5092706;27;20107;-81
2023/11/26 14:01:16;;;;;;;6.38;2.58;;;;;;;;;;5125598;27;20454;-81
2023/11/26 14:03:43;;;;;;;7.28;2.70;;;;;;;;;;5123794;27;20052;-81
2023/11/26 14:06:11;;;;;;;4.80;1.85;;;;;;;;;;5094285;27;20569;-82
2023/11/26 14:08:38;;;;;;;4.53;1.80;;;;;;;;;;5112110;27;20051;-80
2023/11/26 14:11:05;;;;;;;6.38;2.97;;;;;;;;;;5120104;27;20051;-81
2023/11/26 14:13:32;;;;;;;10.32;3.97;;;;;;;;;;5102264;27;20055;-82
2023/11/26 14:15:59;;;;;;;10.10;4.38;;;;;;;;;;5105990;27;20100;-81
2023/11/26 14:18:26;;;;;;;9.25;3.92;;;;;;;;;;5111221;27;20079;-81
2023/11/26 14:20:53;;;;;;;6.15;2.90;;;;;;;;;;5126819;27;20159;-81
2023/11/26 14:23:22;;;;;;;4.32;2.20;;;;;;;;;;5112616;27;20046;-82
2023/11/26 14:25:50;;;;;;;5.25;2.20;;;;;;;;;;5111924;27;20055;-82
2023/11/26 14:28:17;;;;;;;3.78;2.40;;;;;;;;;;5110842;27;20046;-84
2023/11/26 14:30:43;;;;;;;5.38;1.77;;;;;;;;;;5113733;27;20051;-82
2023/11/26 14:33:11;;;;;;;4.88;2.28;;;;;;;;;;5121565;27;20051;-81
2023/11/26 14:35:39;;;;;;;8.55;2.88;;;;;;;;;;5114459;27;20072;-84
2023/11/26 14:38:08;;;;;;;6.65;2.53;;;;;;;;;;5113436;27;20055;-86
2023/11/26 14:40:38;;;;;;;4.85;1.70;;;;;;;;;;5102683;27;20051;-81
2023/11/26 14:43:05;;;;;;;8.38;3.30;;;;;;;;;;5111254;27;20051;-82
2023/11/26 14:45:32;;;;;;;16.65;5.68;;;;;;;;;;5108819;27;20077;-81
2023/11/26 14:47:59;;;;;;;9.32;4.03;;;;;;;;;;5136768;27;20825;-81
2023/11/26 14:50:26;;;;;;;5.70;2.05;;;;;;;;;;5111321;27;20135;-82
2023/11/26 14:52:54;;;;;;;4.55;2.03;;;;;;;;;;5109487;27;20056;-82
2023/11/26 14:55:21;;;;;;;5.88;1.77;;;;;;;;;;5080872;27;20057;-81
2023/11/26 14:57:47;;;;;;;5.18;2.10;;;;;;;;;;5127375;27;20034;-81
2023/11/26 15:00:15;;;;;;;2.90;2.22;;;;;;;;;;5125618;27;20052;-84
2023/11/26 15:02:43;;;;;;;4.22;1.90;;;;;;;;;;5113251;27;20104;-82
2023/11/26 15:05:14;;;;;;;3.28;1.50;;;;;;;;;;5101914;27;20047;-82
2023/11/26 15:07:40;;;;;;;5.30;1.92;;;;;;;;;;5089969;28;20047;-81
2023/11/26 15:10:10;;;;;;;5.55;2.20;;;;;;;;;;5083452;27;20047;-81
2023/11/26 15:12:38;;;;;;;3.30;2.08;;;;;;;;;;5089760;27;20111;-82
2023/11/26 15:15:05;;;;;;;4.35;2.42;;;;;;;;;;5113325;27;20055;-83
2023/11/26 15:17:32;;;;;;;5.38;2.03;;;;;;;;;;5112689;27;20077;-80
2023/11/26 15:20:02;;;;;;;4.38;2.05;;;;;;;;;;5110813;27;20073;-81
2023/11/26 15:22:29;;;;;;;4.57;2.90;;;;;;;;;;5110141;27;20055;-81
2023/11/26 15:24:56;;;;;;;7.07;3.38;;;;;;;;;;5077115;27;20039;-80
2023/11/26 15:27:23;;;;;;;3.25;2.22;;;;;;;;;;5089033;27;20051;-81
2023/11/26 15:29:50;;;;;;;5.13;1.95;;;;;;;;;;5080988;27;20120;-81
2023/11/26 15:32:17;;;;;;;6.13;2.60;;;;;;;;;;5105148;27;20086;-81
2023/11/26 15:34:44;;;;;;;2.78;2.00;;;;;;;;;;5099956;27;20043;-80
2023/11/26 15:37:11;;;;;;;3.47;1.92;;;;;;;;;;5105596;27;20394;-81
2023/11/26 15:39:38;;;;;;;5.40;2.10;;;;;;;;;;5107999;27;20047;-80
2023/11/26 15:42:05;;;;;;;5.45;2.38;;;;;;;;;;5095820;27;20058;-80
2023/11/26 15:44:32;;;;;;;4.65;2.63;;;;;;;;;;5102502;27;20047;-80
2023/11/26 15:46:59;;;;;;;3.47;2.20;;;;;;;;;;5080884;27;20520;-80
2023/11/26 15:49:26;;;;;;;5.63;2.30;;;;;;;;;;5108482;27;20497;-81
2023/11/26 15:51:53;;;;;;;5.28;2.42;;;;;;;;;;5112407;27;20119;-80
2023/11/26 15:54:21;;;;;;;3.90;2.08;;;;;;;;;;5096501;27;20094;-80
2023/11/26 15:56:51;;;;;;;6.53;2.22;;;;;;;;;;5107761;27;20047;-80
2023/11/26 15:59:18;;;;;;;5.30;2.22;;;;;;;;;;5117936;27;20081;-80
2023/11/26 16:01:45;;;;;;;3.70;2.05;;;;;;;;;;5097257;27;20046;-79
2023/11/26 16:04:31;;;;;;;4.22;2.45;;;;;;;;;;5104943;27;20050;-79
2023/11/26 16:07:08;;;;;;;6.10;2.92;;;;;;;;;;5135141;28;20074;-81
2023/11/26 16:09:56;;;;;;;7.22;4.15;;;;;;;;;;5122954;28;20055;-80
2023/11/26 16:12:24;;;;;;;6.32;2.97;;;;;;;;;;5123409;27;20115;-80
2023/11/26 16:14:54;;;;;;;5.18;2.63;;;;;;;;;;5141911;27;20043;-79
2023/11/26 16:17:21;;;;;;;6.78;2.75;;;;;;;;;;5131940;27;20104;-82
2023/11/26 16:19:59;;;;;;;4.50;2.65;;;;;;;;;;5113264;27;20043;-79
2023/11/26 16:22:26;;;;;;;5.32;2.65;;;;;;;;;;5109876;27;20089;-80
2023/11/26 16:24:53;;;;;;;7.82;2.85;;;;;;;;;;5092635;28;20582;-80
2023/11/26 16:27:20;;;;;;;6.90;3.70;;;;;;;;;;5105475;27;20055;-81
2023/11/26 16:29:47;;;;;;;5.47;3.20;;;;;;;;;;5109392;27;20050;-81
2023/11/26 16:32:14;;;;;;;6.28;3.22;;;;;;;;;;5077005;28;20059;-82
2023/11/26 16:34:40;;;;;;;4.82;3.08;;;;;;;;;;5115191;27;20073;-82
2023/11/26 16:37:07;;;;;;;5.05;3.17;;;;;;;;;;5115000;27;20108;-83
2023/11/26 16:39:35;;;;;;;7.95;3.95;;;;;;;;;;5098146;27;20042;-81
2023/11/26 16:42:02;;;;;;;6.82;3.50;;;;;;;;;;5096234;27;20047;-80
2023/11/26 16:44:37;;;;;;;6.32;3.35;;;;;;;;;;5082368;27;20075;-81
2023/11/26 16:47:04;;;;;;;5.68;2.60;;;;;;;;;;5093572;27;20060;-81
2023/11/26 16:49:31;;;;;;;4.68;3.38;;;;;;;;;;5113419;27;20059;-82
2023/11/26 16:51:58;;;;;;;3.88;2.58;;;;;;;;;;5133375;27;20066;-81
2023/11/26 16:54:24;;;;;;;4.25;2.72;;;;;;;;;;5079901;27;20043;-81
2023/11/26 16:56:51;;;;;;;4.95;3.65;;;;;;;;;;5096005;27;20083;-81
2023/11/26 16:59:19;;;;;;;17.40;10.82;;;;;;;;;;5094482;28;20051;-81
2023/11/26 17:01:46;;;;;;;9.60;6.80;;;;;;;;;;5110585;27;20055;-81
2023/11/26 17:04:13;;;;;;;7.78;3.47;;;;;;;;;;5094137;28;20132;-82
2023/11/26 17:06:44;;;;;;;4.47;2.78;;;;;;;;;;5106390;27;20051;-81
2023/11/26 17:09:11;;;;;;;4.25;2.25;;;;;;;;;;5090181;28;20055;-81
2023/11/26 17:11:38;;;;;;;4.22;1.92;;;;;;;;;;5080346;27;20501;-81
2023/11/26 17:14:05;;;;;;;5.57;2.25;;;;;;;;;;5113822;27;20070;-82
2023/11/26 17:16:33;;;;;;;5.07;2.22;;;;;;;;;;5097349;27;20067;-80
2023/11/26 17:19:02;;;;;;;3.00;1.83;;;;;;;;;;5110651;28;20101;-81
2023/11/26 17:21:29;;;;;;;5.00;2.38;;;;;;;;;;5091477;27;20138;-82
2023/11/26 17:23:56;;;;;;;5.60;2.50;;;;;;;;;;5114454;27;20047;-81
2023/11/26 17:26:27;;;;;;;5.00;2.88;;;;;;;;;;5091980;28;20058;-81
2023/11/26 17:28:54;;;;;;;4.97;3.30;;;;;;;;;;5124013;28;20112;-82
2023/11/26 17:31:22;;;;;;;4.50;2.85;;;;;;;;;;5117387;27;20103;-83
2023/11/26 17:33:49;;;;;;;4.88;2.60;;;;;;;;;;5098968;27;20062;-81
2023/11/26 17:36:16;;;;;;;4.30;2.20;;;;;;;;;;5116903;28;20066;-82
2023/11/26 17:38:44;;;;;;;5.40;3.45;;;;;;;;;;5117044;28;20115;-83
2023/11/26 17:41:12;;;;;;;3.03;2.40;;;;;;;;;;5083728;28;20090;-81
2023/11/26 17:43:39;;;;;;;4.70;2.53;;;;;;;;;;5102047;28;20058;-81
2023/11/26 17:46:06;;;;;;;8.05;3.38;;;;;;;;;;5126009;28;20112;-80
2023/11/26 17:48:33;;;;;;;5.43;2.78;;;;;;;;;;5125220;28;20096;-81
2023/11/26 17:51:00;;;;;;;7.68;3.40;;;;;;;;;;5109984;28;20055;-79
2023/11/26 17:53:27;;;;;;;4.45;2.72;;;;;;;;;;5121478;28;20055;-81
2023/11/26 17:55:54;;;;;;;7.40;3.00;;;;;;;;;;5076469;28;20056;-81
2023/11/26 17:58:21;;;;;;;6.25;3.65;;;;;;;;;;5111268;28;20054;-81
2023/11/26 18:00:49;;;;;;;5.60;3.70;;;;;;;;;;5114198;28;20061;-81
2023/11/26 18:03:17;;;;;;;7.32;3.88;;;;;;;;;;5093506;28;20055;-81
2023/11/26 18:05:44;;;;;;;9.15;4.05;;;;;;;;;;5081600;27;20114;-80
2023/11/26 18:08:11;;;;;;;5.32;3.47;;;;;;;;;;5084390;28;20161;-81
2023/11/26 18:10:38;;;;;;;8.02;3.97;;;;;;;;;;5093504;28;20104;-80
2023/11/26 18:13:05;;;;;;;10.10;5.05;;;;;;;;;;5118449;28;20054;-81
2023/11/26 18:15:32;;;;;;;11.38;4.40;;;;;;;;;;5101952;28;20056;-81
2023/11/26 18:17:59;;;;;;;9.27;4.40;;;;;;;;;;5110849;28;20070;-82
2023/11/26 18:20:26;;;;;;;7.38;4.00;;;;;;;;;;5098138;28;20062;-82
2023/11/26 18:22:53;;;;;;;5.28;3.80;;;;;;;;;;5116434;28;20043;-83
2023/11/26 18:25:19;;;;;;;7.82;4.80;;;;;;;;;;5099245;27;20073;-82
2023/11/26 18:27:46;;;;;;;9.57;5.35;;;;;;;;;;5118094;27;20043;-86
2023/11/26 18:30:13;;;;;;;8.93;4.82;;;;;;;;;;5100961;27;20047;-88
2023/11/26 18:32:42;;;;;;;8.30;5.18;;;;;;;;;;5117874;27;20096;-84
2023/11/26 18:35:12;;;;;;;5.03;2.90;;;;;;;;;;5095185;28;20058;-84
2023/11/26 18:37:39;;;;;;;4.20;2.75;;;;;;;;;;5114391;27;20556;-85
2023/11/26 18:40:07;;;;;;;5.82;2.78;;;;;;;;;;5129641;27;20048;-83
2023/11/26 18:42:34;;;;;;;5.13;2.88;;;;;;;;;;5109161;27;20116;-84
2023/11/26 18:45:01;;;;;;;5.25;2.80;;;;;;;;;;5090519;27;20058;-84
2023/11/26 18:47:27;;;;;;;6.68;4.10;;;;;;;;;;5107651;27;20059;-84
2023/11/26 18:49:54;;;;;;;6.82;3.47;;;;;;;;;;5097436;27;20043;-84
2023/11/26 18:52:21;;;;;;;4.68;2.53;;;;;;;;;;5095592;27;20084;-83
2023/11/26 18:54:48;;;;;;;3.88;2.67;;;;;;;;;;5089774;27;20047;-84
2023/11/26 18:57:15;;;;;;;3.95;2.60;;;;;;;;;;5108934;27;20104;-84
2023/11/26 18:59:43;;;;;;;6.72;3.10;;;;;;;;;;5097323;27;20054;-82
2023/11/26 19:02:10;;;;;;;5.38;2.90;;;;;;;;;;5091286;27;20521;-84
2023/11/26 19:04:37;;;;;;;5.53;3.80;;;;;;;;;;5108600;27;20126;-84
2023/11/26 19:07:05;;;;;;;5.57;3.58;;;;;;;;;;5097253;27;20058;-83
2023/11/26 19:09:32;;;;;;;4.65;3.17;;;;;;;;;;5094007;27;20108;-85
2023/11/26 19:11:59;;;;;;;5.93;3.97;;;;;;;;;;5126155;27;20052;-83
2023/11/26 19:14:26;;;;;;;5.22;2.90;;;;;;;;;;5106453;27;20066;-84
2023/11/26 19:16:53;;;;;;;4.68;3.33;;;;;;;;;;5098382;27;20493;-84
2023/11/26 19:19:20;;;;;;;4.35;2.92;;;;;;;;;;5090916;27;20123;-84
2023/11/26 19:21:47;;;;;;;8.63;3.72;;;;;;;;;;5106451;27;20134;-84
2023/11/26 19:24:14;;;;;;;6.75;3.38;;;;;;;;;;5093692;27;20055;-85
2023/11/26 19:26:41;;;;;;;4.15;3.00;;;;;;;;;;5110097;28;20118;-84
2023/11/26 19:29:08;;;;;;;4.95;2.97;;;;;;;;;;5089920;27;20055;-85
2023/11/26 19:31:35;;;;;;;4.72;2.97;;;;;;;;;;5101962;27;20081;-84
2023/11/26 19:34:01;;;;;;;3.88;3.22;;;;;;;;;;5114258;27;20055;-84
2023/11/26 19:36:28;;;;;;;3.17;2.42;;;;;;;;;;5129676;27;20478;-83
2023/11/26 19:38:55;;;;;;;5.47;3.00;;;;;;;;;;5133972;27;20043;-86
2023/11/26 19:41:22;;;;;;;4.65;3.03;;;;;;;;;;5140125;27;20046;-86
2023/11/26 19:43:49;;;;;;;4.50;2.47;;;;;;;;;;5093678;27;20027;-88
2023/11/26 19:46:16;;;;;;;3.50;2.30;;;;;;;;;;5123263;27;20047;-86
2023/11/26 19:48:47;;;;;;;4.15;2.47;;;;;;;;;;5109560;27;20055;-83
2023/11/26 19:51:17;;;;;;;3.42;2.15;;;;;;;;;;5142170;27;20065;-88
2023/11/26 19:53:45;;;;;;;3.47;2.20;;;;;;;;;;5141780;27;20055;-84
2023/11/26 19:56:15;;;;;;;3.75;2.20;;;;;;;;;;5094092;27;20130;-84
2023/11/26 19:58:43;;;;;;;3.60;2.58;;;;;;;;;;5089227;27;20602;-84
2023/11/26 20:01:10;;;;;;;4.78;2.30;;;;;;;;;;5102317;27;20105;-84
2023/11/26 20:03:38;;;;;;;3.10;2.67;;;;;;;;;;5103847;27;20047;-84
2023/11/26 20:06:05;;;;;;;5.25;2.38;;;;;;;;;;5078336;27;20056;-84
2023/11/26 20:08:32;;;;;;;3.65;2.60;;;;;;;;;;5108816;27;20078;-84
2023/11/26 20:11:00;;;;;;;3.88;2.25;;;;;;;;;;5104534;28;20060;-84
2023/11/26 20:13:28;;;;;;;3.97;2.88;;;;;;;;;;5078271;27;20500;-84
2023/11/26 20:15:55;;;;;;;4.38;2.17;;;;;;;;;;5096025;27;20058;-85
2023/11/26 20:18:23;;;;;;;3.63;2.17;;;;;;;;;;5086833;27;20219;-83
2023/11/26 20:20:50;;;;;;;1.98;1.77;;;;;;;;;;5101926;27;20167;-88
2023/11/26 20:23:17;;;;;;;3.80;2.88;;;;;;;;;;5082688;27;20047;-83
2023/11/26 20:25:44;;;;;;;3.47;2.03;;;;;;;;;;5100840;28;20048;-82
2023/11/26 20:28:11;;;;;;;3.33;2.15;;;;;;;;;;5093864;27;20067;-85
2023/11/26 20:30:38;;;;;;;3.40;2.47;;;;;;;;;;5089038;27;20042;-84
2023/11/26 20:33:14;;;;;;;3.35;2.60;;;;;;;;;;5106034;27;20417;-84
2023/11/26 20:35:42;;;;;;;2.72;2.33;;;;;;;;;;5106859;27;20107;-85
2023/11/26 20:38:08;;;;;;;2.08;1.83;;;;;;;;;;5095121;27;20054;-84
2023/11/26 20:40:35;;;;;;;2.47;1.80;;;;;;;;;;5090582;27;20083;-84
2023/11/26 20:43:02;;;;;;;4.57;1.98;;;;;;;;;;5088801;27;20051;-83
2023/11/26 20:45:29;;;;;;;2.78;1.80;;;;;;;;;;5076678;27;20050;-81
2023/11/26 20:47:56;;;;;;;5.28;1.98;;;;;;;;;;5095493;27;20043;-87
2023/11/26 20:50:23;;;;;;;3.60;2.05;;;;;;;;;;5103719;27;20063;-82
2023/11/26 20:52:50;;;;;;;2.33;2.03;;;;;;;;;;5105642;27;20051;-83
2023/11/26 20:55:17;;;;;;;2.92;2.00;;;;;;;;;;5109356;27;20072;-81
2023/11/26 20:57:44;;;;;;;2.42;1.70;;;;;;;;;;5119701;27;20139;-82
2023/11/26 21:00:15;;;;;;;2.50;1.83;;;;;;;;;;5120227;27;20047;-79
2023/11/26 21:02:41;;;;;;;2.67;2.00;;;;;;;;;;5104743;28;20051;-81
2023/11/26 21:05:09;;;;;;;2.60;2.03;;;;;;;;;;5085739;28;20193;-80
2023/11/26 21:07:36;;;;;;;4.00;2.13;;;;;;;;;;5109054;27;20055;-79
2023/11/26 21:10:05;;;;;;;2.42;1.85;;;;;;;;;;5100660;27;20058;-80
2023/11/26 21:12:36;;;;;;;3.20;2.33;;;;;;;;;;5110672;27;20058;-81
2023/11/26 21:15:04;;;;;;;3.75;2.20;;;;;;;;;;5142041;27;20530;-81
2023/11/26 21:17:37;;;;;;;4.75;2.28;;;;;;;;;;5123465;27;20062;-80
2023/11/26 21:20:09;;;;;;;5.93;2.63;;;;;;;;;;5123458;27;20057;-80
2023/11/26 21:22:36;;;;;;;5.20;2.85;;;;;;;;;;5121985;27;20046;-79
2023/11/26 21:25:03;;;;;;;5.78;2.88;;;;;;;;;;5120005;27;20062;-78
2023/11/26 21:27:31;;;;;;;5.57;2.70;;;;;;;;;;5101615;28;20047;-78
2023/11/26 21:29:58;;;;;;;4.78;2.88;;;;;;;;;;5108795;27;20039;-78
2023/11/26 21:32:25;;;;;;;5.57;2.75;;;;;;;;;;5096310;27;20118;-79
2023/11/26 21:34:52;;;;;;;3.63;2.60;;;;;;;;;;5107304;27;20493;-80
2023/11/26 21:37:19;;;;;;;6.07;2.88;;;;;;;;;;5104021;28;20043;-79
2023/11/26 21:39:46;;;;;;;4.10;2.88;;;;;;;;;;5123395;28;20055;-78
2023/11/26 21:42:14;;;;;;;4.63;3.13;;;;;;;;;;5103202;28;20054;-78
2023/11/26 21:44:41;;;;;;;5.15;2.97;;;;;;;;;;5103171;28;20065;-78
2023/11/26 21:47:08;;;;;;;8.52;4.00;;;;;;;;;;5117507;28;20051;-80
2023/11/26 21:49:35;;;;;;;6.32;3.28;;;;;;;;;;5126118;28;20174;-79
2023/11/26 21:52:03;;;;;;;5.97;3.78;;;;;;;;;;5104692;28;20054;-80
2023/11/26 21:54:30;;;;;;;6.72;4.45;;;;;;;;;;5105566;28;20051;-79
2023/11/26 21:56:56;;;;;;;8.65;4.40;;;;;;;;;;5127659;28;20047;-79
2023/11/26 21:59:24;;;;;;;5.25;4.07;;;;;;;;;;5093910;27;20048;-78
2023/11/26 22:01:50;;;;;;;5.53;3.17;;;;;;;;;;5114017;27;20077;-79
2023/11/26 22:04:24;;;;;;;3.63;2.85;;;;;;;;;;5092250;27;20086;-79
2023/11/26 22:06:51;;;;;;;2.30;2.10;;;;;;;;;;5125268;27;20039;-79
2023/11/26 22:09:18;;;;;;;3.53;2.28;;;;;;;;;;5109964;27;20111;-78
2023/11/26 22:11:45;;;;;;;3.65;2.40;;;;;;;;;;5126962;27;20051;-79
2023/11/26 22:14:12;;;;;;;3.88;2.63;;;;;;;;;;5088656;28;20051;-79
2023/11/26 22:16:39;;;;;;;3.40;2.70;;;;;;;;;;5099635;27;20047;-79
2023/11/26 22:19:09;;;;;;;3.88;2.58;;;;;;;;;;5109927;27;20096;-79
2023/11/26 22:21:36;;;;;;;3.65;2.40;;;;;;;;;;5129293;27;20080;-78
2023/11/26 22:24:04;;;;;;;3.63;2.60;;;;;;;;;;5139642;27;20047;-78
2023/11/26 22:26:38;;;;;;;4.80;2.40;;;;;;;;;;5105968;27;20136;-78
2023/11/26 22:29:05;;;;;;;3.28;2.33;;;;;;;;;;5100448;28;20048;-79
2023/11/26 22:31:32;;;;;;;4.03;2.40;;;;;;;;;;5104983;27;20513;-78
2023/11/26 22:34:00;;;;;;;4.13;2.63;;;;;;;;;;5096122;27;20078;-78
2023/11/26 22:36:29;;;;;;;5.72;2.70;;;;;;;;;;5096086;27;20056;-77
2023/11/26 22:38:57;;;;;;;3.95;2.45;;;;;;;;;;5093907;28;20461;-79
2023/11/26 22:41:25;;;;;;;2.90;2.50;;;;;;;;;;5110674;27;20051;-79
2023/11/26 22:43:53;;;;;;;4.32;2.60;;;;;;;;;;5113565;27;20058;-79
2023/11/26 22:46:25;;;;;;;2.95;2.45;;;;;;;;;;5133537;27;20497;-79
2023/11/26 22:48:53;;;;;;;4.80;2.70;;;;;;;;;;5111721;27;20058;-78
2023/11/26 22:51:20;;;;;;;3.03;2.20;;;;;;;;;;5109819;27;20043;-79
2023/11/26 22:53:47;;;;;;;3.15;2.35;;;;;;;;;;5106530;27;20050;-78
2023/11/26 22:56:14;;;;;;;2.80;2.53;;;;;;;;;;5121453;27;20047;-76
2023/11/26 22:58:42;;;;;;;2.72;2.17;;;;;;;;;;5107853;27;20130;-80
2023/11/26 23:01:10;;;;;;;2.75;2.20;;;;;;;;;;5136238;27;20064;-79
2023/11/26 23:03:37;;;;;;;4.45;2.25;;;;;;;;;;5128892;27;20051;-80
2023/11/26 23:06:07;;;;;;;3.05;2.40;;;;;;;;;;5125264;28;20036;-81
2023/11/26 23:08:34;;;;;;;4.15;2.50;;;;;;;;;;5110106;27;20050;-81
2023/11/26 23:11:01;;;;;;;3.92;2.85;;;;;;;;;;5142157;27;20031;-79
2023/11/26 23:13:30;;;;;;;4.28;2.72;;;;;;;;;;5120352;27;20080;-80
2023/11/26 23:15:57;;;;;;;3.05;2.20;;;;;;;;;;5088793;27;20059;-79
2023/11/26 23:18:25;;;;;;;4.47;2.72;;;;;;;;;;5095375;27;20131;-78
2023/11/26 23:20:53;;;;;;;5.05;2.70;;;;;;;;;;5114652;27;20044;-80
2023/11/26 23:23:21;;;;;;;3.83;2.55;;;;;;;;;;5083485;27;20051;-78
2023/11/26 23:26:08;;;;;;;3.25;2.70;;;;;;;;;;5086749;27;20063;-79
2023/11/26 23:28:35;;;;;;;4.65;2.83;;;;;;;;;;5086922;27;20112;-80
2023/11/26 23:31:01;;;;;;;4.20;2.40;;;;;;;;;;5136593;27;20051;-81
2023/11/26 23:33:28;;;;;;;3.00;2.70;;;;;;;;;;5096402;27;20051;-80
2023/11/26 23:35:55;;;;;;;4.72;2.78;;;;;;;;;;5105477;27;20051;-81
2023/11/26 23:38:22;;;;;;;3.13;2.40;;;;;;;;;;5106001;27;20051;-80
2023/11/26 23:40:49;;;;;;;4.75;2.40;;;;;;;;;;5104254;27;20461;-79
2023/11/26 23:43:16;;;;;;;3.42;2.60;;;;;;;;;;5108886;27;20059;-78
2023/11/26 23:45:44;;;;;;;4.75;2.92;;;;;;;;;;5106056;27;20079;-79
2023/11/26 23:48:11;;;;;;;4.68;2.58;;;;;;;;;;5104876;27;20086;-77
2023/11/26 23:50:38;;;;;;;3.15;2.53;;;;;;;;;;5109495;27;20053;-79
2023/11/26 23:53:05;;;;;;;4.18;2.83;;;;;;;;;;5107069;27;20047;-79
2023/11/26 23:55:32;;;;;;;3.17;2.47;;;;;;;;;;5114359;27;20043;-80
2023/11/26 23:57:59;;;;;;;6.18;3.08;;;;;;;;;;5146796;27;20116;-78
